createdAt,value
2018-04-18T00:00:03.574Z,0
2018-04-18T00:01:03.602Z,0
2018-04-18T00:02:03.230Z,0
2018-04-18T00:03:03.721Z,0
2018-04-18T00:04:03.739Z,0
2018-04-18T00:05:03.722Z,0
2018-04-18T00:06:03.466Z,0
2018-04-18T00:07:03.740Z,0
2018-04-18T00:08:03.723Z,0
2018-04-18T00:09:03.241Z,0
2018-04-18T00:10:03.710Z,0
2018-04-18T00:11:03.462Z,0
2018-04-18T00:12:03.456Z,0
2018-04-18T00:13:03.501Z,0
2018-04-18T00:14:03.719Z,0
2018-04-18T00:15:03.765Z,0
2018-04-18T00:16:03.704Z,0
2018-04-18T00:17:03.719Z,0
2018-04-18T00:18:03.802Z,0
2018-04-18T00:19:03.705Z,0
2018-04-18T00:20:03.443Z,0
2018-04-18T00:21:03.696Z,0
2018-04-18T00:22:03.193Z,0
2018-04-18T00:23:03.548Z,0
2018-04-18T00:24:03.451Z,0
2018-04-18T00:25:03.729Z,0
2018-04-18T00:26:03.697Z,0
2018-04-18T00:27:03.743Z,0
2018-04-18T00:28:03.686Z,0
2018-04-18T00:29:03.437Z,0
2018-04-18T00:30:03.731Z,0
2018-04-18T00:31:03.690Z,0
2018-04-18T00:32:03.445Z,0
2018-04-18T00:33:03.439Z,0
2018-04-18T00:34:03.421Z,0
2018-04-18T00:35:03.486Z,0
2018-04-18T00:36:03.421Z,0
2018-04-18T00:37:03.697Z,0
2018-04-18T00:38:03.416Z,0
2018-04-18T00:39:03.153Z,0
2018-04-18T00:40:03.404Z,0
2018-04-18T00:41:03.420Z,0
2018-04-18T00:42:03.661Z,0
2018-04-18T00:43:03.430Z,0
2018-04-18T00:44:03.416Z,0
2018-04-18T00:45:03.719Z,0
2018-04-18T00:46:03.666Z,0
2018-04-18T00:47:03.655Z,0
2018-04-18T00:48:03.143Z,0
2018-04-18T00:49:03.141Z,0
2018-04-18T00:50:03.396Z,0
2018-04-18T00:51:03.641Z,0
2018-04-18T00:52:03.142Z,0
2018-04-18T00:53:03.155Z,0
2018-04-18T00:54:03.407Z,0
2018-04-18T00:55:03.395Z,0
2018-04-18T00:56:03.379Z,0
2018-04-18T00:57:03.126Z,0
2018-04-18T00:58:03.665Z,0
2018-04-18T00:59:02.887Z,0
2018-04-18T01:00:05.533Z,0
2018-04-18T01:01:03.383Z,0
2018-04-18T01:02:03.631Z,0
2018-04-18T01:03:03.387Z,0
2018-04-18T01:04:03.368Z,0
2018-04-18T01:05:03.375Z,0
2018-04-18T01:06:03.627Z,0
2018-04-18T01:07:03.129Z,0
2018-04-18T01:08:03.393Z,0
2018-04-18T01:09:03.701Z,0
2018-04-18T01:10:03.133Z,0
2018-04-18T01:11:03.649Z,0
2018-04-18T01:12:03.633Z,0
2018-04-18T01:13:03.387Z,0
2018-04-18T01:14:03.618Z,0
2018-04-18T01:15:03.419Z,0
2018-04-18T01:16:02.852Z,0
2018-04-18T01:17:03.343Z,0
2018-04-18T01:18:03.636Z,0
2018-04-18T01:19:03.637Z,0
2018-04-18T01:20:03.102Z,0
2018-04-18T01:21:03.342Z,0
2018-04-18T01:22:03.346Z,0
2018-04-18T01:23:03.341Z,0
2018-04-18T01:24:03.338Z,0
2018-04-18T01:25:03.584Z,0
2018-04-18T01:26:03.336Z,0
2018-04-18T01:27:03.573Z,0
2018-04-18T01:28:03.594Z,0
2018-04-18T01:29:03.604Z,0
2018-04-18T01:30:04.970Z,0
2018-04-18T01:31:03.312Z,0
2018-04-18T01:32:03.318Z,0
2018-04-18T01:33:03.103Z,0
2018-04-18T01:34:03.576Z,0
2018-04-18T01:35:03.587Z,0
2018-04-18T01:36:03.323Z,0
2018-04-18T01:37:03.336Z,0
2018-04-18T01:38:03.381Z,0
2018-04-18T01:39:03.340Z,0
2018-04-18T01:40:03.584Z,0
2018-04-18T01:41:03.312Z,0
2018-04-18T01:42:03.560Z,0
2018-04-18T01:43:03.289Z,0
2018-04-18T01:44:03.295Z,0
2018-04-18T01:45:03.302Z,0
2018-04-18T01:46:05.179Z,0
2018-04-18T01:47:03.291Z,0
2018-04-18T01:48:03.532Z,0
2018-04-18T01:49:03.517Z,0
2018-04-18T01:50:03.023Z,0
2018-04-18T01:51:03.304Z,0
2018-04-18T01:52:03.529Z,0
2018-04-18T01:53:03.516Z,0
2018-04-18T01:54:03.260Z,0
2018-04-18T01:55:03.525Z,0
2018-04-18T01:56:03.539Z,0
2018-04-18T01:57:03.521Z,0
2018-04-18T01:58:03.274Z,0
2018-04-18T01:59:03.510Z,0
2018-04-18T02:00:03.519Z,0
2018-04-18T02:01:03.576Z,0
2018-04-18T02:02:03.299Z,0
2018-04-18T02:03:03.544Z,0
2018-04-18T02:04:03.269Z,0
2018-04-18T02:05:03.239Z,0
2018-04-18T02:06:03.504Z,0
2018-04-18T02:07:02.737Z,0
2018-04-18T02:08:03.247Z,0
2018-04-18T02:09:03.002Z,0
2018-04-18T02:10:02.989Z,0
2018-04-18T02:11:03.485Z,0
2018-04-18T02:12:03.475Z,0
2018-04-18T02:13:03.470Z,0
2018-04-18T02:14:03.268Z,0
2018-04-18T02:15:03.229Z,0
2018-04-18T02:16:03.279Z,0
2018-04-18T02:17:03.474Z,0
2018-04-18T02:18:03.468Z,0
2018-04-18T02:19:03.209Z,0
2018-04-18T02:20:03.463Z,0
2018-04-18T02:21:03.462Z,0
2018-04-18T02:22:03.206Z,0
2018-04-18T02:23:02.469Z,0
2018-04-18T02:24:03.193Z,0
2018-04-18T02:25:02.940Z,0
2018-04-18T02:26:03.455Z,0
2018-04-18T02:27:03.465Z,0
2018-04-18T02:28:03.432Z,0
2018-04-18T02:29:02.946Z,0
2018-04-18T02:30:03.289Z,0
2018-04-18T02:31:05.091Z,0
2018-04-18T02:32:03.464Z,0
2018-04-18T02:33:03.434Z,0
2018-04-18T02:34:02.942Z,0
2018-04-18T02:35:03.187Z,0
2018-04-18T02:36:03.474Z,0
2018-04-18T02:37:02.932Z,0
2018-04-18T02:38:03.424Z,0
2018-04-18T02:39:03.171Z,0
2018-04-18T02:40:02.906Z,0
2018-04-18T02:41:02.902Z,0
2018-04-18T02:42:03.157Z,0
2018-04-18T02:43:03.155Z,0
2018-04-18T02:44:03.146Z,0
2018-04-18T02:45:03.395Z,0
2018-04-18T02:46:03.196Z,0
2018-04-18T02:47:03.410Z,0
2018-04-18T02:48:02.912Z,0
2018-04-18T02:49:02.898Z,0
2018-04-18T02:50:03.400Z,0
2018-04-18T02:51:03.382Z,0
2018-04-18T02:52:02.392Z,0
2018-04-18T02:53:03.137Z,0
2018-04-18T02:54:03.383Z,0
2018-04-18T02:55:03.374Z,0
2018-04-18T02:56:03.121Z,0
2018-04-18T02:57:03.135Z,0
2018-04-18T02:58:02.612Z,0
2018-04-18T02:59:03.364Z,0
2018-04-18T03:00:03.380Z,0
2018-04-18T03:01:03.325Z,0
2018-04-18T03:02:03.094Z,0
2018-04-18T03:03:02.889Z,0
2018-04-18T03:04:03.100Z,0
2018-04-18T03:05:03.086Z,0
2018-04-18T03:06:03.120Z,0
2018-04-18T03:07:03.081Z,0
2018-04-18T03:08:02.842Z,0
2018-04-18T03:09:02.587Z,0
2018-04-18T03:10:03.090Z,0
2018-04-18T03:11:03.089Z,0
2018-04-18T03:12:03.328Z,0
2018-04-18T03:13:03.084Z,0
2018-04-18T03:14:03.322Z,0
2018-04-18T03:15:03.078Z,0
2018-04-18T03:16:04.876Z,0
2018-04-18T03:17:03.338Z,0
2018-04-18T03:18:03.312Z,0
2018-04-18T03:19:03.056Z,0
2018-04-18T03:20:03.043Z,0
2018-04-18T03:21:03.317Z,0
2018-04-18T03:22:03.060Z,0
2018-04-18T03:23:03.326Z,0
2018-04-18T03:24:03.064Z,0
2018-04-18T03:25:02.834Z,0
2018-04-18T03:26:03.040Z,0
2018-04-18T03:27:02.776Z,0
2018-04-18T03:28:03.278Z,0
2018-04-18T03:29:02.786Z,0
2018-04-18T03:37:43.901Z,0
2018-04-18T03:38:26.223Z,0
2018-04-18T03:39:25.956Z,0
2018-04-18T03:40:25.967Z,0
2018-04-18T03:41:25.695Z,0
2018-04-18T03:42:25.942Z,0
2018-04-18T03:43:25.432Z,0
2018-04-18T03:44:25.687Z,0
2018-04-18T03:45:25.756Z,0
2018-04-18T03:46:25.671Z,0
2018-04-18T03:47:25.725Z,0
2018-04-18T03:48:25.420Z,0
2018-04-18T03:49:25.735Z,0
2018-04-18T03:50:25.972Z,0
2018-04-18T03:51:25.919Z,0
2018-04-18T03:52:25.659Z,0
2018-04-18T03:53:25.992Z,0
2018-04-18T03:54:25.907Z,0
2018-04-18T03:55:25.658Z,0
2018-04-18T03:56:25.661Z,0
2018-04-18T03:57:25.642Z,0
2018-04-18T03:58:25.407Z,0
2018-04-18T03:59:26.177Z,0
2018-04-18T04:00:26.181Z,0
2018-04-18T04:01:25.693Z,0
2018-04-18T04:02:25.651Z,0
2018-04-18T04:03:25.880Z,0
2018-04-18T04:04:26.115Z,0
2018-04-18T04:05:25.937Z,0
2018-04-18T04:06:25.620Z,0
2018-04-18T04:07:26.113Z,0
2018-04-18T04:08:28.042Z,0
2018-04-18T04:09:25.617Z,0
2018-04-18T04:10:25.647Z,0
2018-04-18T04:11:26.101Z,0
2018-04-18T04:12:25.375Z,0
2018-04-18T04:13:26.083Z,0
2018-04-18T04:14:25.842Z,0
2018-04-18T04:15:26.193Z,0
2018-04-18T04:16:26.091Z,0
2018-04-18T04:17:25.833Z,0
2018-04-18T04:18:25.975Z,0
2018-04-18T04:19:26.085Z,0
2018-04-18T04:20:26.123Z,0
2018-04-18T04:21:25.587Z,5
2018-04-18T04:22:25.824Z,5
2018-04-18T04:23:26.057Z,5
2018-04-18T04:24:26.060Z,5
2018-04-18T04:25:25.618Z,5
2018-04-18T04:26:25.823Z,5
2018-04-18T04:27:26.052Z,5
2018-04-18T04:28:25.594Z,10
2018-04-18T04:29:26.039Z,10
2018-04-18T04:30:25.590Z,10
2018-04-18T04:31:26.032Z,10
2018-04-18T04:32:25.785Z,10
2018-04-18T04:33:25.783Z,15
2018-04-18T04:34:25.770Z,15
2018-04-18T04:35:25.853Z,15
2018-04-18T04:36:26.022Z,15
2018-04-18T04:37:25.775Z,20
2018-04-18T04:38:27.690Z,20
2018-04-18T04:39:25.760Z,20
2018-04-18T04:40:25.807Z,20
2018-04-18T04:41:26.006Z,25
2018-04-18T04:42:25.286Z,25
2018-04-18T04:43:25.755Z,25
2018-04-18T04:44:25.530Z,30
2018-04-18T04:45:25.554Z,30
2018-04-18T04:46:25.734Z,30
2018-04-18T04:47:25.746Z,30
2018-04-18T04:48:25.981Z,35
2018-04-18T04:49:25.735Z,35
2018-04-18T04:50:26.036Z,35
2018-04-18T04:51:25.474Z,40
2018-04-18T04:52:25.491Z,40
2018-04-18T04:53:26.586Z,45
2018-04-18T04:54:25.709Z,45
2018-04-18T04:55:25.735Z,45
2018-04-18T04:56:25.817Z,55
2018-04-18T04:57:25.709Z,60
2018-04-18T04:58:25.708Z,70
2018-04-18T04:59:25.711Z,80
2018-04-18T05:00:25.728Z,80
2018-04-18T05:01:25.947Z,85
2018-04-18T05:02:25.699Z,85
2018-04-18T05:03:25.685Z,90
2018-04-18T05:04:25.679Z,95
2018-04-18T05:05:25.740Z,100
2018-04-18T05:06:25.677Z,95
2018-04-18T05:07:25.940Z,90
2018-04-18T05:08:26.676Z,85
2018-04-18T05:09:25.446Z,105
2018-04-18T05:10:25.989Z,110
2018-04-18T05:11:25.707Z,115
2018-04-18T05:12:25.683Z,110
2018-04-18T05:13:25.692Z,110
2018-04-18T05:14:25.667Z,105
2018-04-18T05:15:25.452Z,100
2018-04-18T05:16:25.660Z,100
2018-04-18T05:17:25.432Z,100
2018-04-18T05:18:25.921Z,100
2018-04-18T05:19:25.443Z,100
2018-04-18T05:20:25.737Z,100
2018-04-18T05:21:25.669Z,100
2018-04-18T05:22:25.426Z,100
2018-04-18T05:23:25.422Z,100
2018-04-18T05:24:25.708Z,100
2018-04-18T05:25:26.005Z,105
2018-04-18T05:26:25.431Z,140
2018-04-18T05:27:25.947Z,110
2018-04-18T05:28:25.911Z,110
2018-04-18T05:29:25.908Z,110
2018-04-18T05:30:26.002Z,115
2018-04-18T05:31:25.912Z,115
2018-04-18T05:32:25.412Z,125
2018-04-18T05:33:25.894Z,135
2018-04-18T05:34:25.913Z,140
2018-04-18T05:35:25.671Z,150
2018-04-18T05:36:25.908Z,155
2018-04-18T05:37:26.142Z,160
2018-04-18T05:38:25.681Z,170
2018-04-18T05:39:26.946Z,180
2018-04-18T05:40:25.522Z,195
2018-04-18T05:41:25.911Z,200
2018-04-18T05:42:25.886Z,200
2018-04-18T05:43:25.899Z,200
2018-04-18T05:44:25.436Z,200
2018-04-18T05:45:25.436Z,205
2018-04-18T05:46:25.142Z,205
2018-04-18T05:47:25.662Z,210
2018-04-18T05:48:25.916Z,215
2018-04-18T05:49:25.659Z,215
2018-04-18T05:50:25.678Z,215
2018-04-18T05:51:25.918Z,215
2018-04-18T05:52:25.658Z,215
2018-04-18T05:53:25.901Z,210
2018-04-18T05:54:25.680Z,210
2018-04-18T05:55:25.562Z,210
2018-04-18T05:56:25.672Z,210
2018-04-18T05:57:25.664Z,200
2018-04-18T05:58:25.422Z,195
2018-04-18T05:59:25.678Z,175
2018-04-18T06:00:25.691Z,165
2018-04-18T06:01:25.439Z,160
2018-04-18T06:02:25.971Z,155
2018-04-18T06:03:25.936Z,150
2018-04-18T06:04:25.942Z,150
2018-04-18T06:05:25.710Z,150
2018-04-18T06:06:25.626Z,150
2018-04-18T06:07:25.442Z,150
2018-04-18T06:08:25.957Z,150
2018-04-18T06:09:26.229Z,150
2018-04-18T06:10:25.532Z,150
2018-04-18T06:11:25.519Z,155
2018-04-18T06:12:25.449Z,155
2018-04-18T06:13:25.686Z,160
2018-04-18T06:22:55.732Z,245
2018-04-18T06:23:55.456Z,265
2018-04-18T06:24:55.456Z,265
2018-04-18T06:25:55.712Z,270
2018-04-18T06:26:55.453Z,280
2018-04-18T06:27:55.192Z,275
2018-04-18T06:28:55.224Z,280
2018-04-18T06:29:55.193Z,280
2018-04-18T06:30:55.206Z,285
2018-04-18T06:31:55.461Z,285
2018-04-18T06:32:55.460Z,290
2018-04-18T06:33:55.239Z,285
2018-04-18T06:34:55.697Z,285
2018-04-18T06:35:55.458Z,290
2018-04-18T06:36:55.460Z,295
2018-04-18T06:37:55.284Z,290
2018-04-18T06:38:55.740Z,295
2018-04-18T06:39:55.469Z,295
2018-04-18T06:40:55.775Z,300
2018-04-18T06:41:55.497Z,300
2018-04-18T06:42:56.115Z,305
2018-04-18T06:43:55.734Z,305
2018-04-18T06:44:55.742Z,310
2018-04-18T06:45:55.592Z,310
2018-04-18T06:46:55.502Z,310
2018-04-18T06:47:55.765Z,315
2018-04-18T06:48:55.267Z,315
2018-04-18T06:49:55.262Z,315
2018-04-18T06:50:55.774Z,320
2018-04-18T06:51:55.568Z,320
2018-04-18T06:52:55.528Z,330
2018-04-18T06:53:55.294Z,325
2018-04-18T06:54:55.306Z,325
2018-04-18T06:55:55.312Z,325
2018-04-18T06:56:55.826Z,330
2018-04-18T06:57:55.108Z,330
2018-04-18T06:58:55.309Z,330
2018-04-18T06:59:55.315Z,330
2018-04-18T07:00:55.832Z,330
2018-04-18T07:01:55.331Z,335
2018-04-18T07:02:55.575Z,335
2018-04-18T07:03:55.851Z,340
2018-04-18T07:04:55.841Z,335
2018-04-18T07:05:55.350Z,345
2018-04-18T07:06:55.360Z,345
2018-04-18T07:07:55.868Z,345
2018-04-18T07:08:55.608Z,345
2018-04-18T07:09:55.631Z,345
2018-04-18T07:10:55.129Z,345
2018-04-18T07:11:55.667Z,345
2018-04-18T07:12:57.588Z,350
2018-04-18T07:13:55.410Z,350
2018-04-18T07:14:55.901Z,350
2018-04-18T07:15:55.921Z,350
2018-04-18T07:16:55.925Z,305
2018-04-18T07:17:55.928Z,350
2018-04-18T07:18:55.430Z,340
2018-04-18T07:19:55.941Z,325
2018-04-18T07:20:55.971Z,265
2018-04-18T07:21:55.969Z,335
2018-04-18T07:22:55.733Z,320
2018-04-18T07:23:55.734Z,295
2018-04-18T07:24:55.487Z,270
2018-04-18T07:25:55.729Z,260
2018-04-18T07:26:55.738Z,255
2018-04-18T07:27:56.046Z,250
2018-04-18T07:28:55.737Z,245
2018-04-18T07:29:55.766Z,245
2018-04-18T07:30:55.780Z,245
2018-04-18T07:31:55.769Z,245
2018-04-18T07:32:56.030Z,245
2018-04-18T07:33:55.782Z,245
2018-04-18T07:34:56.027Z,250
2018-04-18T07:35:56.029Z,310
2018-04-18T07:36:55.785Z,300
2018-04-18T07:37:56.048Z,280
2018-04-18T07:38:55.553Z,265
2018-04-18T07:39:55.804Z,285
2018-04-18T07:40:56.053Z,260
2018-04-18T07:41:56.061Z,265
2018-04-18T07:43:00.614Z,275
2018-04-18T07:43:55.823Z,295
2018-04-18T07:44:55.561Z,305
2018-04-18T07:45:55.825Z,310
2018-04-18T07:46:55.333Z,310
2018-04-18T07:47:55.836Z,315
2018-04-18T07:48:55.595Z,315
2018-04-18T07:49:56.096Z,310
2018-04-18T07:50:55.837Z,310
2018-04-18T07:51:55.855Z,310
2018-04-18T07:52:55.369Z,310
2018-04-18T07:53:55.862Z,315
2018-04-18T07:54:55.380Z,315
2018-04-18T07:55:55.874Z,320
2018-04-18T07:56:55.878Z,330
2018-04-18T07:57:56.200Z,330
2018-04-18T07:58:55.442Z,325
2018-04-18T07:59:56.148Z,325
2018-04-18T08:00:55.647Z,330
2018-04-18T08:01:55.774Z,320
2018-04-18T08:02:56.163Z,325
2018-04-18T08:03:55.934Z,325
2018-04-18T08:04:55.678Z,325
2018-04-18T08:05:55.933Z,325
2018-04-18T08:06:56.186Z,325
2018-04-18T08:07:55.695Z,325
2018-04-18T08:08:55.954Z,325
2018-04-18T08:09:55.981Z,250
2018-04-18T08:10:55.986Z,325
2018-04-18T08:11:56.223Z,325
2018-04-18T08:12:56.228Z,325
2018-04-18T08:13:58.698Z,325
2018-04-18T08:14:56.024Z,325
2018-04-18T08:15:55.759Z,320
2018-04-18T08:16:56.270Z,320
2018-04-18T08:17:56.261Z,320
2018-04-18T08:18:56.045Z,320
2018-04-18T08:19:56.504Z,320
2018-04-18T08:20:56.278Z,325
2018-04-18T08:21:55.962Z,325
2018-04-18T08:22:56.060Z,325
2018-04-18T08:23:56.065Z,320
2018-04-18T08:24:56.088Z,330
2018-04-18T08:25:56.100Z,315
2018-04-18T08:26:55.822Z,320
2018-04-18T08:27:55.835Z,315
2018-04-18T08:28:56.135Z,315
2018-04-18T08:29:56.353Z,315
2018-04-18T08:30:56.099Z,310
2018-04-18T08:31:56.131Z,310
2018-04-18T08:32:56.121Z,310
2018-04-18T08:33:56.140Z,305
2018-04-18T08:34:56.151Z,305
2018-04-18T08:35:56.158Z,310
2018-04-18T08:36:56.445Z,305
2018-04-18T08:37:56.162Z,310
2018-04-18T08:38:56.423Z,310
2018-04-18T08:39:56.176Z,310
2018-04-18T08:40:56.579Z,305
2018-04-18T08:41:56.198Z,305
2018-04-18T08:42:56.457Z,300
2018-04-18T08:43:59.611Z,300
2018-04-18T08:44:56.217Z,300
2018-04-18T08:45:56.230Z,300
2018-04-18T08:46:55.998Z,295
2018-04-18T08:47:56.236Z,295
2018-04-18T08:48:55.524Z,295
2018-04-18T08:49:56.256Z,295
2018-04-18T08:50:56.508Z,295
2018-04-18T08:51:56.028Z,295
2018-04-18T08:52:56.281Z,295
2018-04-18T08:53:56.537Z,295
2018-04-18T08:54:56.310Z,295
2018-04-18T08:55:56.315Z,295
2018-04-18T08:56:56.303Z,295
2018-04-18T08:57:56.565Z,295
2018-04-18T08:58:56.616Z,295
2018-04-18T08:59:56.066Z,295
2018-04-18T09:00:56.350Z,295
2018-04-18T09:01:56.081Z,295
2018-04-18T09:02:56.331Z,295
2018-04-18T09:03:56.331Z,295
2018-04-18T09:04:56.086Z,295
2018-04-18T09:05:56.089Z,300
2018-04-18T09:06:56.349Z,300
2018-04-18T09:07:56.112Z,300
2018-04-18T09:08:56.115Z,300
2018-04-18T09:09:56.288Z,300
2018-04-18T09:10:56.370Z,300
2018-04-18T09:11:56.126Z,305
2018-04-18T09:12:55.876Z,300
2018-04-18T09:13:58.203Z,295
2018-04-18T09:14:56.137Z,305
2018-04-18T09:15:56.788Z,300
2018-04-18T09:16:56.422Z,255
2018-04-18T09:17:56.430Z,300
2018-04-18T09:18:56.420Z,300
2018-04-18T09:19:56.677Z,300
2018-04-18T09:20:56.678Z,305
2018-04-18T09:21:56.421Z,300
2018-04-18T09:22:56.687Z,300
2018-04-18T09:23:56.466Z,300
2018-04-18T09:24:56.435Z,295
2018-04-18T09:25:56.243Z,300
2018-04-18T09:26:55.957Z,295
2018-04-18T09:27:56.446Z,295
2018-04-18T09:28:56.293Z,290
2018-04-18T09:29:56.777Z,290
2018-04-18T09:30:56.224Z,290
2018-04-18T09:31:56.221Z,290
2018-04-18T09:32:56.239Z,290
2018-04-18T09:33:56.744Z,285
2018-04-18T09:34:56.240Z,290
2018-04-18T09:35:56.752Z,290
2018-04-18T09:36:56.489Z,290
2018-04-18T09:37:56.246Z,290
2018-04-18T09:38:56.497Z,290
2018-04-18T09:39:56.505Z,290
2018-04-18T09:40:56.289Z,290
2018-04-18T09:41:56.258Z,290
2018-04-18T09:42:56.839Z,290
2018-04-18T09:43:59.735Z,285
2018-04-18T09:44:56.062Z,285
2018-04-18T09:45:56.526Z,285
2018-04-18T09:46:56.312Z,280
2018-04-18T09:47:56.542Z,275
2018-04-18T09:48:56.312Z,280
2018-04-18T09:49:56.539Z,285
2018-04-18T09:50:56.562Z,285
2018-04-18T09:51:56.815Z,285
2018-04-18T09:52:56.327Z,285
2018-04-18T09:53:56.821Z,280
2018-04-18T09:54:56.351Z,275
2018-04-18T09:55:56.832Z,275
2018-04-18T09:56:56.332Z,280
2018-04-18T09:57:56.594Z,280
2018-04-18T09:58:56.352Z,280
2018-04-18T09:59:56.944Z,275
2018-04-18T10:00:56.853Z,275
2018-04-18T10:01:56.353Z,275
2018-04-18T10:02:56.619Z,265
2018-04-18T10:03:56.810Z,265
2018-04-18T10:04:56.613Z,265
2018-04-18T10:05:56.620Z,270
2018-04-18T10:06:56.624Z,260
2018-04-18T10:07:56.981Z,260
2018-04-18T10:08:56.640Z,260
2018-04-18T10:09:56.922Z,265
2018-04-18T10:10:56.648Z,260
2018-04-18T10:11:56.676Z,255
2018-04-18T10:12:56.916Z,255
2018-04-18T10:13:56.673Z,255
2018-04-18T10:14:59.687Z,265
2018-04-18T10:15:56.684Z,260
2018-04-18T10:16:56.684Z,260
2018-04-18T10:17:56.457Z,265
2018-04-18T10:18:56.684Z,265
2018-04-18T10:19:56.189Z,265
2018-04-18T10:20:56.938Z,265
2018-04-18T10:21:56.724Z,260
2018-04-18T10:52:40.660Z,220
2018-04-18T10:53:36.902Z,230
2018-04-18T10:54:36.657Z,225
2018-04-18T10:55:36.661Z,220
2018-04-18T10:56:36.400Z,220
2018-04-18T10:57:36.436Z,225
2018-04-18T10:58:36.788Z,225
2018-04-18T10:59:36.657Z,225
2018-04-18T11:00:36.413Z,220
2018-04-18T11:01:36.659Z,220
2018-04-18T11:02:36.663Z,215
2018-04-18T11:03:36.669Z,210
2018-04-18T11:04:36.666Z,205
2018-04-18T11:05:36.705Z,210
2018-04-18T11:06:36.480Z,210
2018-04-18T11:07:36.447Z,215
2018-04-18T11:08:36.184Z,210
2018-04-18T11:09:36.459Z,205
2018-04-18T11:10:36.733Z,210
2018-04-18T11:11:36.958Z,215
2018-04-18T11:12:36.481Z,210
2018-04-18T11:13:36.953Z,215
2018-04-18T11:14:36.724Z,215
2018-04-18T11:15:36.969Z,215
2018-04-18T11:16:36.752Z,210
2018-04-18T11:17:36.732Z,215
2018-04-18T11:18:36.752Z,205
2018-04-18T11:19:36.995Z,210
2018-04-18T11:20:36.489Z,215
2018-04-18T11:21:36.510Z,210
2018-04-18T11:22:38.594Z,210
2018-04-18T11:23:36.756Z,210
2018-04-18T11:24:36.771Z,210
2018-04-18T11:25:36.502Z,210
2018-04-18T11:26:37.010Z,210
2018-04-18T11:27:36.785Z,210
2018-04-18T11:28:37.327Z,210
2018-04-18T11:29:36.785Z,215
2018-04-18T11:30:36.538Z,210
2018-04-18T11:31:36.551Z,210
2018-04-18T11:32:36.547Z,210
2018-04-18T11:33:36.810Z,210
2018-04-18T11:34:36.556Z,210
2018-04-18T11:35:37.048Z,210
2018-04-18T11:36:37.131Z,210
2018-04-18T11:37:37.290Z,210
2018-04-18T11:38:36.594Z,215
2018-04-18T11:39:36.860Z,205
2018-04-18T11:40:36.825Z,205
2018-04-18T11:41:36.829Z,210
2018-04-18T11:42:36.598Z,210
2018-04-18T11:43:36.341Z,210
2018-04-18T11:44:36.624Z,205
2018-04-18T11:45:36.377Z,205
2018-04-18T11:46:36.618Z,205
2018-04-18T11:47:36.603Z,205
2018-04-18T11:48:36.858Z,205
2018-04-18T11:49:36.876Z,205
2018-04-18T11:50:36.878Z,205
2018-04-18T11:51:36.624Z,205
2018-04-18T11:52:38.139Z,205
2018-04-18T11:53:36.887Z,205
2018-04-18T11:54:36.402Z,205
2018-04-18T11:55:37.143Z,205
2018-04-18T11:56:36.894Z,205
2018-04-18T11:57:37.280Z,205
2018-04-18T11:58:36.914Z,205
2018-04-18T11:59:36.922Z,205
2018-04-18T12:00:36.669Z,205
2018-04-18T12:01:37.190Z,205
2018-04-18T12:02:36.445Z,205
2018-04-18T12:03:37.191Z,205
2018-04-18T12:04:37.208Z,205
2018-04-18T12:05:36.954Z,205
2018-04-18T12:06:36.711Z,205
2018-04-18T12:07:36.701Z,205
2018-04-18T12:08:37.000Z,200
2018-04-18T12:09:37.218Z,200
2018-04-18T12:10:36.470Z,205
2018-04-18T12:11:37.147Z,205
2018-04-18T12:12:36.993Z,200
2018-04-18T12:13:37.801Z,205
2018-04-18T12:14:37.258Z,200
2018-04-18T12:15:36.768Z,200
2018-04-18T12:16:36.744Z,205
2018-04-18T12:17:37.249Z,200
2018-04-18T12:18:36.762Z,195
2018-04-18T12:19:37.008Z,200
2018-04-18T12:20:37.115Z,200
2018-04-18T12:21:37.029Z,195
2018-04-18T12:22:37.024Z,200
2018-04-18T12:23:38.884Z,195
2018-04-18T12:24:37.033Z,200
2018-04-18T12:25:37.060Z,200
2018-04-18T12:26:36.800Z,195
2018-04-18T12:27:37.054Z,200
2018-04-18T12:28:37.059Z,200
2018-04-18T12:29:37.316Z,195
2018-04-18T12:30:36.815Z,195
2018-04-18T12:31:37.073Z,195
2018-04-18T12:32:36.578Z,195
2018-04-18T12:33:37.319Z,195
2018-04-18T12:34:37.083Z,195
2018-04-18T12:35:37.097Z,195
2018-04-18T12:36:36.849Z,195
2018-04-18T12:37:37.092Z,195
2018-04-18T12:38:36.843Z,195
2018-04-18T12:39:37.357Z,190
2018-04-18T12:40:36.598Z,195
2018-04-18T12:41:37.353Z,195
2018-04-18T12:42:36.627Z,190
2018-04-18T12:43:37.150Z,190
2018-04-18T12:44:36.626Z,190
2018-04-18T12:45:37.122Z,190
2018-04-18T12:46:37.141Z,190
2018-04-18T12:47:36.634Z,190
2018-04-18T12:48:37.145Z,190
2018-04-18T12:49:37.403Z,190
2018-04-18T12:50:37.158Z,190
2018-04-18T12:51:37.415Z,190
2018-04-18T12:52:37.599Z,190
2018-04-18T12:53:37.970Z,190
2018-04-18T12:54:37.420Z,190
2018-04-18T12:55:37.428Z,190
2018-04-18T12:56:37.182Z,190
2018-04-18T12:57:37.660Z,195
2018-04-18T12:58:37.186Z,190
2018-04-18T12:59:37.467Z,185
2018-04-18T13:00:36.953Z,180
2018-04-18T13:01:37.217Z,185
2018-04-18T13:02:37.210Z,185
2018-04-18T13:03:36.711Z,185
2018-04-18T13:04:37.472Z,185
2018-04-18T13:05:37.468Z,185
2018-04-18T13:06:37.289Z,185
2018-04-18T13:07:37.233Z,185
2018-04-18T13:08:37.237Z,185
2018-04-18T13:09:37.252Z,185
2018-04-18T13:10:37.259Z,185
2018-04-18T13:11:37.507Z,185
2018-04-18T13:12:37.261Z,185
2018-04-18T13:13:37.540Z,185
2018-04-18T13:14:37.519Z,185
2018-04-18T13:15:37.259Z,185
2018-04-18T13:16:37.279Z,185
2018-04-18T13:17:37.028Z,185
2018-04-18T13:18:37.284Z,185
2018-04-18T13:19:37.042Z,185
2018-04-18T13:20:37.041Z,185
2018-04-18T13:21:37.314Z,185
2018-04-18T13:22:37.324Z,185
2018-04-18T13:23:37.005Z,185
2018-04-18T13:24:37.564Z,185
2018-04-18T13:25:37.390Z,185
2018-04-18T13:26:37.319Z,185
2018-04-18T13:27:37.088Z,185
2018-04-18T13:28:37.633Z,185
2018-04-18T13:29:37.340Z,185
2018-04-18T13:30:37.091Z,180
2018-04-18T13:31:36.860Z,180
2018-04-18T13:32:36.856Z,180
2018-04-18T13:33:36.857Z,180
2018-04-18T13:34:37.109Z,180
2018-04-18T13:35:37.363Z,180
2018-04-18T13:36:37.615Z,180
2018-04-18T13:37:37.381Z,180
2018-04-18T13:38:37.617Z,180
2018-04-18T13:39:37.650Z,185
2018-04-18T13:40:37.160Z,180
2018-04-18T13:41:37.699Z,180
2018-04-18T13:42:37.654Z,180
2018-04-18T13:43:37.426Z,185
2018-04-18T13:44:37.404Z,180
2018-04-18T13:45:37.414Z,180
2018-04-18T13:46:37.160Z,180
2018-04-18T13:47:37.683Z,180
2018-04-18T13:48:37.170Z,185
2018-04-18T13:49:37.675Z,180
2018-04-18T13:50:37.690Z,180
2018-04-18T13:51:37.445Z,180
2018-04-18T13:52:37.456Z,180
2018-04-18T13:53:37.694Z,180
2018-04-18T13:54:41.717Z,180
2018-04-18T13:55:37.712Z,180
2018-04-18T13:56:37.466Z,180
2018-04-18T13:57:37.467Z,180
2018-04-18T13:58:37.216Z,180
2018-04-18T13:59:37.474Z,180
2018-04-18T14:00:37.478Z,180
2018-04-18T14:01:37.480Z,180
2018-04-18T14:02:37.733Z,175
2018-04-18T14:03:37.500Z,175
2018-04-18T14:04:37.503Z,175
2018-04-18T14:05:37.759Z,175
2018-04-18T14:06:37.518Z,175
2018-04-18T14:07:37.765Z,175
2018-04-18T14:08:37.268Z,175
2018-04-18T14:09:37.768Z,175
2018-04-18T14:10:37.087Z,175
2018-04-18T14:11:37.780Z,175
2018-04-18T14:12:37.286Z,175
2018-04-18T14:13:37.544Z,175
2018-04-18T14:14:37.548Z,175
2018-04-18T14:15:37.798Z,175
2018-04-18T14:16:37.307Z,175
2018-04-18T14:17:37.311Z,175
2018-04-18T14:18:37.586Z,170
2018-04-18T14:19:37.827Z,170
2018-04-18T14:20:37.337Z,170
2018-04-18T14:21:37.845Z,170
2018-04-18T14:22:37.596Z,170
2018-04-18T14:23:37.108Z,170
2018-04-18T14:24:38.406Z,170
2018-04-18T14:25:37.355Z,170
2018-04-18T14:26:37.494Z,170
2018-04-18T14:27:37.611Z,170
2018-04-18T14:28:37.820Z,170
2018-04-18T14:29:37.618Z,170
2018-04-18T14:30:37.632Z,170
2018-04-18T14:31:37.872Z,170
2018-04-18T14:32:37.656Z,170
2018-04-18T14:33:37.925Z,170
2018-04-18T14:34:37.731Z,170
2018-04-18T14:35:37.657Z,170
2018-04-18T14:36:37.655Z,170
2018-04-18T14:37:37.415Z,170
2018-04-18T14:38:37.677Z,170
2018-04-18T14:39:37.421Z,170
2018-04-18T14:40:37.674Z,165
2018-04-18T14:41:37.689Z,165
2018-04-18T14:42:37.951Z,165
2018-04-18T14:43:37.696Z,165
2018-04-18T14:44:37.696Z,165
2018-04-18T14:45:37.699Z,170
2018-04-18T14:46:37.475Z,170
2018-04-18T14:47:37.745Z,165
2018-04-18T14:48:37.231Z,170
2018-04-18T14:49:37.732Z,165
2018-04-18T14:50:37.982Z,165